Time;durP1;ratioP1;P1;durP2;ratioP2;P2;SDS_P1;SDS_P2;PMS_P1;PMS_P2;Temp;Humidity;BMP_temperature;BMP_pressure;BME280_temperature;BME280_humidity;BME280_pressure;Samples;Min_cycle;Max_cycle;Signal;HPM_P1;HPM_P2
2023/09/14 00:02:15;;;;;;;8.37;6.67;;;;;;;;;;4923074;29;20217;-76
2023/09/14 00:05:19;;;;;;;6.63;6.03;;;;;;;;;;4922263;29;20181;-75
2023/09/14 00:08:23;;;;;;;7.40;6.50;;;;;;;;;;4921929;29;20184;-75
2023/09/14 00:11:28;;;;;;;8.50;6.60;;;;;;;;;;4911247;29;20224;-75
2023/09/14 00:14:32;;;;;;;7.27;5.83;;;;;;;;;;4922103;29;20221;-75
2023/09/14 00:17:36;;;;;;;9.07;6.77;;;;;;;;;;4921928;29;20189;-76
2023/09/14 00:20:40;;;;;;;7.27;6.33;;;;;;;;;;4921925;29;20544;-75
2023/09/14 00:23:44;;;;;;;8.10;6.17;;;;;;;;;;4922605;29;20185;-75
2023/09/14 00:26:49;;;;;;;7.73;6.43;;;;;;;;;;4923006;29;20185;-75
2023/09/14 00:29:53;;;;;;;7.50;6.50;;;;;;;;;;4922343;29;20177;-75
2023/09/14 00:32:57;;;;;;;7.33;6.33;;;;;;;;;;4932298;29;20228;-75
2023/09/14 00:36:02;;;;;;;7.40;6.70;;;;;;;;;;4921949;29;20181;-76
2023/09/14 00:39:09;;;;;;;8.07;7.00;;;;;;;;;;4921951;29;20212;-75
2023/09/14 00:42:14;;;;;;;7.43;6.47;;;;;;;;;;4921911;29;20220;-75
2023/09/14 00:45:22;;;;;;;7.70;6.33;;;;;;;;;;4920979;29;20181;-75
2023/09/14 00:48:28;;;;;;;7.17;6.47;;;;;;;;;;4920719;29;20185;-75
2023/09/14 00:51:32;;;;;;;7.13;6.43;;;;;;;;;;4920287;29;20695;-75
2023/09/14 00:54:38;;;;;;;9.43;7.23;;;;;;;;;;4920588;29;20208;-75
2023/09/14 00:57:42;;;;;;;7.90;6.80;;;;;;;;;;4920148;29;20181;-75
2023/09/14 01:00:47;;;;;;;8.53;7.30;;;;;;;;;;4920546;29;20185;-75
2023/09/14 01:03:51;;;;;;;8.33;6.53;;;;;;;;;;4919574;29;20637;-75
2023/09/14 01:06:56;;;;;;;8.23;7.40;;;;;;;;;;4919096;29;20181;-75
2023/09/14 01:10:01;;;;;;;9.37;6.90;;;;;;;;;;4919681;29;20181;-75
2023/09/14 01:13:06;;;;;;;10.13;7.27;;;;;;;;;;4930618;29;20573;-75
2023/09/14 01:16:17;;;;;;;9.30;6.73;;;;;;;;;;4919805;29;20265;-75
2023/09/14 01:19:33;;;;;;;7.50;6.23;;;;;;;;;;4919826;29;20185;-76
2023/09/14 01:22:50;;;;;;;8.20;6.90;;;;;;;;;;4918604;29;20225;-75
2023/09/14 01:25:55;;;;;;;7.30;6.27;;;;;;;;;;4918622;29;20185;-76
2023/09/14 01:29:04;;;;;;;7.80;7.00;;;;;;;;;;4918361;29;20189;-75
2023/09/14 01:32:08;;;;;;;10.03;6.83;;;;;;;;;;4918073;29;20704;-75
2023/09/14 01:35:12;;;;;;;10.80;6.90;;;;;;;;;;4917784;29;20194;-76
2023/09/14 01:38:16;;;;;;;9.03;7.00;;;;;;;;;;4918122;29;20215;-75
2023/09/14 01:41:21;;;;;;;8.87;7.13;;;;;;;;;;4917899;29;20232;-75
2023/09/14 01:44:26;;;;;;;8.87;7.47;;;;;;;;;;4918035;29;20177;-75
2023/09/14 01:47:30;;;;;;;8.13;7.03;;;;;;;;;;4918020;29;20185;-75
2023/09/14 01:50:35;;;;;;;12.57;7.63;;;;;;;;;;4917889;29;20181;-75
2023/09/14 01:53:39;;;;;;;9.63;7.83;;;;;;;;;;4917210;29;20222;-75
2023/09/14 01:56:43;;;;;;;9.03;8.07;;;;;;;;;;4917901;29;20525;-75
2023/09/14 01:59:48;;;;;;;8.87;7.97;;;;;;;;;;4918545;29;20193;-76
2023/09/14 02:02:52;;;;;;;9.73;7.97;;;;;;;;;;4921157;29;20228;-75
2023/09/14 02:06:00;;;;;;;10.60;8.20;;;;;;;;;;4921121;29;20185;-75
2023/09/14 02:09:05;;;;;;;12.33;8.00;;;;;;;;;;4921118;29;20192;-75
2023/09/14 02:12:09;;;;;;;10.67;7.70;;;;;;;;;;4920774;29;20229;-75
2023/09/14 02:15:13;;;;;;;9.30;7.80;;;;;;;;;;4920849;29;20177;-75
2023/09/14 02:18:17;;;;;;;11.50;8.13;;;;;;;;;;4921215;29;20530;-75
2023/09/14 02:21:21;;;;;;;7.90;7.00;;;;;;;;;;4920565;29;20584;-75
2023/09/14 02:24:26;;;;;;;9.70;8.13;;;;;;;;;;4920658;29;20177;-75
2023/09/14 02:27:30;;;;;;;11.20;8.17;;;;;;;;;;4921628;29;20530;-75
2023/09/14 02:30:39;;;;;;;10.90;8.17;;;;;;;;;;4920275;29;20181;-75
2023/09/14 02:33:43;;;;;;;8.83;6.93;;;;;;;;;;4920458;29;20216;-75
2023/09/14 02:36:48;;;;;;;9.30;8.30;;;;;;;;;;4921014;29;20185;-75
2023/09/14 02:39:52;;;;;;;8.50;7.63;;;;;;;;;;4920054;29;20181;-75
2023/09/14 02:42:56;;;;;;;10.70;8.63;;;;;;;;;;4919918;29;20220;-75
2023/09/14 02:46:00;;;;;;;8.80;7.67;;;;;;;;;;4938231;23;20173;-82
2023/09/14 02:49:04;;;;;;;10.20;7.47;;;;;;;;;;4938376;29;20188;-83
2023/09/14 02:52:08;;;;;;;9.90;7.73;;;;;;;;;;4949117;29;20712;-82
2023/09/14 02:55:13;;;;;;;8.77;7.80;;;;;;;;;;4949698;29;20203;-82
2023/09/14 02:58:17;;;;;;;9.80;7.53;;;;;;;;;;4948125;29;20189;-82
2023/09/14 03:01:21;;;;;;;10.40;7.43;;;;;;;;;;4947991;29;20184;-82
2023/09/14 03:04:25;;;;;;;12.83;7.90;;;;;;;;;;4947244;29;20180;-82
2023/09/14 03:07:30;;;;;;;9.07;7.20;;;;;;;;;;4947199;29;20203;-82
2023/09/14 03:10:35;;;;;;;10.67;8.43;;;;;;;;;;4946310;29;20180;-81
2023/09/14 03:13:39;;;;;;;11.93;8.47;;;;;;;;;;4945996;29;20573;-82
2023/09/14 03:16:43;;;;;;;10.63;8.37;;;;;;;;;;4945430;29;20553;-81
2023/09/14 03:19:48;;;;;;;10.73;9.20;;;;;;;;;;4945481;29;20180;-81
2023/09/14 03:22:53;;;;;;;9.80;7.07;;;;;;;;;;4945008;29;20220;-82
2023/09/14 03:25:57;;;;;;;10.70;8.53;;;;;;;;;;4945579;29;20188;-81
2023/09/14 03:29:01;;;;;;;14.27;9.57;;;;;;;;;;4944707;29;20189;-82
2023/09/14 03:32:05;;;;;;;11.10;9.20;;;;;;;;;;4943762;29;20217;-82
2023/09/14 03:35:09;;;;;;;12.43;9.93;;;;;;;;;;4943652;29;20212;-81
2023/09/14 03:38:15;;;;;;;12.73;10.03;;;;;;;;;;4945277;29;20195;-81
2023/09/14 03:41:20;;;;;;;10.80;9.63;;;;;;;;;;4944092;29;20652;-81
2023/09/14 03:44:24;;;;;;;12.90;9.90;;;;;;;;;;4931800;29;20199;-82
2023/09/14 03:47:28;;;;;;;12.87;11.07;;;;;;;;;;4942240;29;20207;-82
2023/09/14 03:50:32;;;;;;;14.53;10.33;;;;;;;;;;4941195;29;20546;-80
2023/09/14 03:53:36;;;;;;;13.57;11.13;;;;;;;;;;4940502;29;20223;-80
2023/09/14 03:56:41;;;;;;;14.03;11.23;;;;;;;;;;4941285;29;20200;-80
2023/09/14 03:59:46;;;;;;;12.63;10.47;;;;;;;;;;4939815;29;20207;-80
2023/09/14 04:02:50;;;;;;;17.17;12.67;;;;;;;;;;4939478;29;20239;-81
2023/09/14 04:05:55;;;;;;;14.93;11.60;;;;;;;;;;4942331;29;20196;-82
2023/09/14 04:08:59;;;;;;;16.47;12.40;;;;;;;;;;4941387;29;20187;-80
2023/09/14 04:12:03;;;;;;;16.10;12.63;;;;;;;;;;4929021;29;20246;-81
2023/09/14 04:15:09;;;;;;;15.43;11.47;;;;;;;;;;4940587;29;20214;-80
2023/09/14 04:18:13;;;;;;;15.30;12.53;;;;;;;;;;4940975;29;20204;-82
2023/09/14 04:21:17;;;;;;;16.47;12.80;;;;;;;;;;4941554;29;20199;-81
2023/09/14 04:24:22;;;;;;;19.40;14.43;;;;;;;;;;4940785;29;20203;-81
2023/09/14 04:27:31;;;;;;;17.27;13.90;;;;;;;;;;4939842;29;20187;-81
2023/09/14 04:30:48;;;;;;;21.57;15.60;;;;;;;;;;4941092;29;20195;-81
2023/09/14 04:33:53;;;;;;;20.30;15.00;;;;;;;;;;4940096;29;20577;-80
2023/09/14 04:36:57;;;;;;;19.70;15.10;;;;;;;;;;4939521;29;20199;-88
2023/09/14 04:40:01;;;;;;;17.30;13.00;;;;;;;;;;4939019;29;20191;-88
2023/09/14 04:43:05;;;;;;;20.50;14.30;;;;;;;;;;4939595;29;20712;-88
2023/09/14 04:46:10;;;;;;;18.87;14.37;;;;;;;;;;4938627;29;20210;-87
2023/09/14 04:49:15;;;;;;;21.13;16.23;;;;;;;;;;4938805;29;20196;-88
2023/09/14 04:52:19;;;;;;;20.40;15.93;;;;;;;;;;4937723;29;20603;-88
2023/09/14 04:55:25;;;;;;;21.90;16.13;;;;;;;;;;4939809;29;20215;-88
2023/09/14 04:58:29;;;;;;;24.63;17.50;;;;;;;;;;4927075;29;20199;-87
2023/09/14 05:01:33;;;;;;;24.27;17.30;;;;;;;;;;4938431;29;20227;-89
2023/09/14 05:04:38;;;;;;;24.23;18.73;;;;;;;;;;4938535;29;20554;-88
2023/09/14 05:07:43;;;;;;;25.67;18.97;;;;;;;;;;4937957;29;20550;-88
2023/09/14 05:10:51;;;;;;;28.40;19.97;;;;;;;;;;4937869;29;20195;-88
2023/09/14 05:13:56;;;;;;;28.07;20.00;;;;;;;;;;4937867;29;20196;-87
2023/09/14 05:17:00;;;;;;;28.97;20.07;;;;;;;;;;4938520;29;20660;-87
2023/09/14 05:20:08;;;;;;;28.50;20.77;;;;;;;;;;4937341;29;20187;-87
2023/09/14 05:23:13;;;;;;;29.60;20.30;;;;;;;;;;4937716;29;20235;-87
2023/09/14 05:26:17;;;;;;;26.90;19.30;;;;;;;;;;4937776;29;20554;-88
2023/09/14 05:29:22;;;;;;;32.57;19.87;;;;;;;;;;4937653;29;20199;-86
2023/09/14 05:32:26;;;;;;;28.10;19.33;;;;;;;;;;4937445;29;20223;-86
2023/09/14 05:35:31;;;;;;;28.93;20.77;;;;;;;;;;4939445;29;20227;-86
2023/09/14 05:38:35;;;;;;;24.93;17.57;;;;;;;;;;4938552;29;20199;-87
2023/09/14 05:41:43;;;;;;;29.30;19.20;;;;;;;;;;4938131;29;20219;-86
2023/09/14 05:44:48;;;;;;;27.43;20.17;;;;;;;;;;4939045;29;20249;-86
2023/09/14 05:47:53;;;;;;;26.40;18.80;;;;;;;;;;4939722;29;20215;-86
2023/09/14 05:50:57;;;;;;;23.00;16.83;;;;;;;;;;4939466;29;20192;-86
2023/09/14 05:54:01;;;;;;;24.13;18.13;;;;;;;;;;4939404;29;20195;-86
2023/09/14 05:57:05;;;;;;;23.47;17.20;;;;;;;;;;4939462;29;20187;-86
2023/09/14 06:00:13;;;;;;;26.93;17.40;;;;;;;;;;4938619;29;20187;-88
2023/09/14 06:03:17;;;;;;;23.83;17.70;;;;;;;;;;4943124;29;20214;-80
2023/09/14 06:06:21;;;;;;;24.60;17.40;;;;;;;;;;4941015;29;20184;-80
2023/09/14 06:09:26;;;;;;;32.47;18.27;;;;;;;;;;4938241;29;20669;-80
2023/09/14 06:12:33;;;;;;;27.40;17.50;;;;;;;;;;4937349;29;20219;-81
2023/09/14 06:15:37;;;;;;;22.07;16.47;;;;;;;;;;4939580;29;20613;-80
2023/09/14 06:18:41;;;;;;;22.20;16.80;;;;;;;;;;4939436;29;20677;-81
2023/09/14 06:21:45;;;;;;;19.70;15.53;;;;;;;;;;4939296;29;20231;-81
2023/09/14 06:24:50;;;;;;;20.57;15.50;;;;;;;;;;4939386;29;20188;-82
2023/09/14 06:27:54;;;;;;;18.23;14.93;;;;;;;;;;4944275;29;20253;-82
2023/09/14 06:31:00;;;;;;;21.40;15.90;;;;;;;;;;4929953;29;20196;-82
2023/09/14 06:34:04;;;;;;;21.63;14.93;;;;;;;;;;4930094;29;20187;-82
2023/09/14 06:37:08;;;;;;;23.90;15.83;;;;;;;;;;4940557;29;20191;-82
2023/09/14 06:40:14;;;;;;;19.90;15.73;;;;;;;;;;4939539;29;20196;-81
2023/09/14 06:43:18;;;;;;;21.07;15.67;;;;;;;;;;4940051;29;20235;-82
2023/09/14 06:46:22;;;;;;;22.13;15.83;;;;;;;;;;4941320;29;20207;-82
2023/09/14 06:49:26;;;;;;;20.40;15.37;;;;;;;;;;4942439;29;20250;-82
2023/09/14 06:52:34;;;;;;;21.83;16.63;;;;;;;;;;4943786;29;20601;-83
2023/09/14 06:55:39;;;;;;;25.80;16.50;;;;;;;;;;4941380;29;20231;-82
2023/09/14 06:58:43;;;;;;;20.77;16.23;;;;;;;;;;4945949;29;20191;-82
2023/09/14 07:01:47;;;;;;;21.47;15.50;;;;;;;;;;4934866;29;20425;-81
2023/09/14 07:04:52;;;;;;;19.17;14.83;;;;;;;;;;4943592;29;20191;-83
2023/09/14 07:07:56;;;;;;;21.30;14.70;;;;;;;;;;4935384;29;20187;-83
2023/09/14 07:11:00;;;;;;;18.27;13.80;;;;;;;;;;4943286;29;20191;-82
2023/09/14 07:14:06;;;;;;;19.07;14.27;;;;;;;;;;4944115;29;20546;-83
2023/09/14 07:17:10;;;;;;;18.93;13.97;;;;;;;;;;4944411;29;20180;-82
2023/09/14 07:20:15;;;;;;;22.43;14.20;;;;;;;;;;4942366;29;20195;-82
2023/09/14 07:23:22;;;;;;;19.27;14.73;;;;;;;;;;4931241;29;20227;-82
2023/09/14 07:26:26;;;;;;;15.37;13.00;;;;;;;;;;4931286;29;20184;-83
2023/09/14 07:29:30;;;;;;;15.27;12.57;;;;;;;;;;4942526;29;20200;-84
2023/09/14 07:32:34;;;;;;;15.77;13.10;;;;;;;;;;4942564;29;20227;-84
2023/09/14 07:35:41;;;;;;;18.83;12.60;;;;;;;;;;4932117;29;20215;-84
2023/09/14 07:38:45;;;;;;;17.73;13.50;;;;;;;;;;4942394;29;20200;-83
2023/09/14 07:41:55;;;;;;;15.13;12.60;;;;;;;;;;4945711;29;20236;-83
2023/09/14 07:45:00;;;;;;;20.67;14.43;;;;;;;;;;4945977;29;20183;-84
2023/09/14 07:48:06;;;;;;;15.67;12.57;;;;;;;;;;4943874;29;20215;-83
2023/09/14 07:51:10;;;;;;;14.93;12.70;;;;;;;;;;4944811;29;20183;-84
2023/09/14 07:54:16;;;;;;;18.10;14.47;;;;;;;;;;4946978;29;20191;-83
2023/09/14 07:57:21;;;;;;;17.50;14.13;;;;;;;;;;4944843;29;20179;-84
2023/09/14 08:00:25;;;;;;;19.07;15.10;;;;;;;;;;4945237;29;20195;-83
2023/09/14 08:03:30;;;;;;;22.27;16.80;;;;;;;;;;4942654;29;20223;-83
2023/09/14 08:06:35;;;;;;;22.20;16.23;;;;;;;;;;4942314;29;20191;-83
2023/09/14 08:09:39;;;;;;;22.53;17.80;;;;;;;;;;4943809;29;20246;-83
2023/09/14 08:12:43;;;;;;;21.30;16.40;;;;;;;;;;4942189;29;20740;-81
2023/09/14 08:15:47;;;;;;;27.33;18.03;;;;;;;;;;4941037;29;20384;-82
2023/09/14 08:18:52;;;;;;;21.00;17.90;;;;;;;;;;4941319;29;20221;-81
2023/09/14 08:21:57;;;;;;;18.20;16.00;;;;;;;;;;4940045;29;20712;-80
2023/09/14 08:25:02;;;;;;;18.63;15.73;;;;;;;;;;4940067;29;20183;-81
2023/09/14 08:28:06;;;;;;;16.77;14.40;;;;;;;;;;4939852;29;20199;-81
2023/09/14 08:31:11;;;;;;;20.13;16.20;;;;;;;;;;4940163;29;20187;-82
2023/09/14 08:34:15;;;;;;;18.70;16.47;;;;;;;;;;4939682;29;20195;-82
2023/09/14 08:37:19;;;;;;;19.03;15.53;;;;;;;;;;4943906;29;20183;-83
2023/09/14 08:40:24;;;;;;;18.73;16.20;;;;;;;;;;4942487;29;20199;-83
2023/09/14 08:43:28;;;;;;;17.63;15.70;;;;;;;;;;4942886;29;20231;-84
2023/09/14 08:46:33;;;;;;;18.93;15.60;;;;;;;;;;4942957;29;20219;-83
2023/09/14 08:49:38;;;;;;;20.10;16.67;;;;;;;;;;4941137;29;20196;-83
2023/09/14 08:52:44;;;;;;;18.27;16.33;;;;;;;;;;4943232;29;20247;-84
2023/09/14 08:55:48;;;;;;;17.10;14.77;;;;;;;;;;4942576;29;20223;-83
2023/09/14 08:58:55;;;;;;;19.53;16.40;;;;;;;;;;4942764;29;20211;-83
2023/09/14 09:02:00;;;;;;;18.17;15.17;;;;;;;;;;4940070;29;20242;-82
2023/09/14 09:05:05;;;;;;;16.97;15.13;;;;;;;;;;4939649;29;20207;-81
2023/09/14 09:08:09;;;;;;;21.50;16.40;;;;;;;;;;4938735;29;20192;-82
2023/09/14 09:11:14;;;;;;;19.40;17.00;;;;;;;;;;4938988;29;20191;-81
2023/09/14 09:14:18;;;;;;;19.07;17.07;;;;;;;;;;4939101;29;20195;-82
2023/09/14 09:17:22;;;;;;;22.50;18.73;;;;;;;;;;4940695;29;20179;-82
2023/09/14 09:20:27;;;;;;;25.40;21.20;;;;;;;;;;4927419;29;20199;-81
2023/09/14 09:23:33;;;;;;;22.20;19.93;;;;;;;;;;4939330;29;20219;-82
2023/09/14 09:26:40;;;;;;;22.27;19.87;;;;;;;;;;4939639;29;20195;-82
2023/09/14 09:29:44;;;;;;;22.30;19.83;;;;;;;;;;4927364;29;20187;-82
2023/09/14 09:32:54;;;;;;;23.90;21.53;;;;;;;;;;4938170;29;20239;-82
2023/09/14 09:36:00;;;;;;;22.30;20.00;;;;;;;;;;4938801;29;20219;-82
2023/09/14 09:39:05;;;;;;;21.40;18.17;;;;;;;;;;4937883;29;20199;-81
2023/09/14 09:42:13;;;;;;;19.83;17.73;;;;;;;;;;4938568;29;20235;-81
2023/09/14 09:45:19;;;;;;;18.77;16.43;;;;;;;;;;4937425;29;20199;-81
2023/09/14 09:48:23;;;;;;;15.93;13.40;;;;;;;;;;4926930;29;20196;-81
2023/09/14 09:51:29;;;;;;;15.23;13.63;;;;;;;;;;4938214;29;20195;-81
2023/09/14 09:54:35;;;;;;;16.07;14.27;;;;;;;;;;4938497;29;20191;-81
2023/09/14 09:57:51;;;;;;;18.30;13.93;;;;;;;;;;4937401;29;20187;-81
2023/09/14 10:00:58;;;;;;;15.10;13.63;;;;;;;;;;4939225;29;20193;-82
2023/09/14 10:04:10;;;;;;;16.23;14.53;;;;;;;;;;4937810;29;20253;-81
2023/09/14 10:07:23;;;;;;;13.47;12.10;;;;;;;;;;4939173;29;20185;-82
2023/09/14 10:10:30;;;;;;;13.40;10.10;;;;;;;;;;4937420;29;20272;-81
2023/09/14 10:13:34;;;;;;;11.67;10.50;;;;;;;;;;4938087;29;20231;-81
2023/09/14 10:16:41;;;;;;;11.52;10.23;;;;;;;;;;4937728;29;20217;-81
2023/09/14 10:19:47;;;;;;;10.45;9.45;;;;;;;;;;4937121;29;20211;-82
2023/09/14 10:22:52;;;;;;;9.80;8.80;;;;;;;;;;4941489;29;20223;-82
2023/09/14 10:25:57;;;;;;;10.13;9.13;;;;;;;;;;4941212;29;20184;-82
2023/09/14 10:29:01;;;;;;;9.57;8.15;;;;;;;;;;4941143;29;20649;-81
2023/09/14 10:32:08;;;;;;;10.98;9.93;;;;;;;;;;4941068;29;20229;-82
2023/09/14 10:35:12;;;;;;;11.27;8.93;;;;;;;;;;4940933;29;20543;-82
2023/09/14 10:38:19;;;;;;;10.13;9.23;;;;;;;;;;4941260;29;20629;-82
2023/09/14 10:41:23;;;;;;;11.88;10.60;;;;;;;;;;4941256;29;20193;-82
2023/09/14 10:44:28;;;;;;;14.53;11.73;;;;;;;;;;4940449;29;20192;-83
2023/09/14 10:47:36;;;;;;;12.63;11.33;;;;;;;;;;4940856;29;20587;-81
2023/09/14 10:50:41;;;;;;;12.73;11.43;;;;;;;;;;4941398;29;20211;-82
2023/09/14 10:53:45;;;;;;;12.23;10.80;;;;;;;;;;4940335;29;20555;-81
2023/09/14 10:56:55;;;;;;;13.85;11.48;;;;;;;;;;4940096;29;20217;-81
2023/09/14 11:00:04;;;;;;;13.90;10.80;;;;;;;;;;4941103;29;20197;-82
2023/09/14 11:03:09;;;;;;;12.50;10.88;;;;;;;;;;4940714;29;20231;-81
2023/09/14 11:06:48;;;;;;;12.80;11.33;;;;;;;;;;4940789;29;20190;-82
2023/09/14 11:10:03;;;;;;;13.97;10.77;;;;;;;;;;4941191;29;20194;-81
2023/09/14 11:13:19;;;;;;;11.93;10.20;;;;;;;;;;4940222;29;20228;-80
2023/09/14 11:16:25;;;;;;;10.27;9.17;;;;;;;;;;4939824;29;20209;-81
2023/09/14 11:19:30;;;;;;;12.23;9.10;;;;;;;;;;4940370;29;20201;-80
2023/09/14 11:22:36;;;;;;;11.80;8.50;;;;;;;;;;4940077;29;20222;-81
2023/09/14 11:25:43;;;;;;;11.37;9.80;;;;;;;;;;4940439;29;20181;-81
2023/09/14 11:28:49;;;;;;;11.93;9.93;;;;;;;;;;4939773;29;20545;-80
2023/09/14 11:31:56;;;;;;;11.47;9.37;;;;;;;;;;4938376;29;20224;-81
2023/09/14 11:35:02;;;;;;;14.50;10.70;;;;;;;;;;4938941;29;20192;-81
2023/09/14 11:38:20;;;;;;;10.63;9.17;;;;;;;;;;4940003;29;20668;-80
2023/09/14 11:41:35;;;;;;;10.13;8.77;;;;;;;;;;4940101;29;20192;-81
2023/09/14 11:44:50;;;;;;;10.93;9.77;;;;;;;;;;4939010;29;20185;-80
2023/09/14 11:47:54;;;;;;;12.10;9.87;;;;;;;;;;4939933;29;20211;-80
2023/09/14 11:51:03;;;;;;;10.87;9.43;;;;;;;;;;4939520;29;20197;-81
2023/09/14 11:54:08;;;;;;;13.67;9.10;;;;;;;;;;4939724;29;20183;-80
2023/09/14 11:57:12;;;;;;;11.30;8.90;;;;;;;;;;4938951;29;20204;-80
2023/09/14 12:00:22;;;;;;;12.23;9.50;;;;;;;;;;4939382;29;20184;-81
2023/09/14 12:03:27;;;;;;;17.47;10.40;;;;;;;;;;4939023;29;20723;-80
2023/09/14 12:06:32;;;;;;;11.07;9.67;;;;;;;;;;4939982;29;20189;-81
2023/09/14 12:09:37;;;;;;;13.00;9.63;;;;;;;;;;4939567;29;20197;-80
2023/09/14 12:12:41;;;;;;;12.63;9.13;;;;;;;;;;4927524;29;20749;-80
2023/09/14 12:15:47;;;;;;;12.53;9.10;;;;;;;;;;4939845;29;20195;-80
2023/09/14 12:18:52;;;;;;;10.30;9.07;;;;;;;;;;4938074;29;20197;-80
2023/09/14 12:21:56;;;;;;;9.53;8.53;;;;;;;;;;4937839;29;20236;-81
2023/09/14 12:25:03;;;;;;;10.27;8.57;;;;;;;;;;4937989;29;20189;-80
2023/09/14 12:28:09;;;;;;;11.10;9.10;;;;;;;;;;4938802;29;20646;-81
2023/09/14 12:31:14;;;;;;;8.63;7.60;;;;;;;;;;4938624;29;20200;-81
2023/09/14 12:34:18;;;;;;;12.73;9.23;;;;;;;;;;4938568;29;20219;-80
2023/09/14 12:37:23;;;;;;;9.07;8.17;;;;;;;;;;4938790;29;20573;-81
2023/09/14 12:40:32;;;;;;;10.07;8.17;;;;;;;;;;4938538;29;20190;-81
2023/09/14 12:43:37;;;;;;;10.53;8.17;;;;;;;;;;4938243;29;20592;-81
2023/09/14 12:46:41;;;;;;;9.53;8.27;;;;;;;;;;4938661;29;20205;-81
2023/09/14 12:49:46;;;;;;;8.90;7.37;;;;;;;;;;4939265;29;20188;-81
2023/09/14 12:52:50;;;;;;;11.07;7.37;;;;;;;;;;4938294;29;20226;-81
2023/09/14 12:55:54;;;;;;;8.00;6.43;;;;;;;;;;4937936;29;20190;-86
2023/09/14 12:59:04;;;;;;;9.87;6.40;;;;;;;;;;4938249;29;20635;-85
2023/09/14 13:02:08;;;;;;;10.27;6.70;;;;;;;;;;4925603;29;20566;-86
2023/09/14 13:05:13;;;;;;;11.07;6.00;;;;;;;;;;4925835;29;20190;-86
2023/09/14 13:08:17;;;;;;;9.27;6.50;;;;;;;;;;4936474;29;20184;-86
2023/09/14 13:11:25;;;;;;;12.33;6.70;;;;;;;;;;4925690;29;20185;-86
2023/09/14 13:14:30;;;;;;;7.00;6.23;;;;;;;;;;4937442;29;20195;-86
2023/09/14 13:17:34;;;;;;;8.68;6.35;;;;;;;;;;4925441;29;20211;-86
2023/09/14 13:20:45;;;;;;;6.75;5.80;;;;;;;;;;4936491;29;20191;-86
2023/09/14 13:23:52;;;;;;;6.63;5.95;;;;;;;;;;4936025;29;20191;-87
2023/09/14 13:26:56;;;;;;;10.57;6.07;;;;;;;;;;4914602;29;20186;-87
2023/09/14 13:30:01;;;;;;;8.15;5.90;;;;;;;;;;4925885;29;20209;-87
2023/09/14 13:33:06;;;;;;;10.13;5.93;;;;;;;;;;4925726;29;20220;-87
2023/09/14 13:36:10;;;;;;;6.53;5.88;;;;;;;;;;4941759;28;20185;-87
2023/09/14 13:39:14;;;;;;;7.63;5.65;;;;;;;;;;4929469;29;20183;-86
2023/09/14 13:42:18;;;;;;;7.50;5.47;;;;;;;;;;4930191;29;20219;-87
2023/09/14 13:45:23;;;;;;;7.07;5.63;;;;;;;;;;4929892;29;20180;-86
2023/09/14 13:48:28;;;;;;;8.75;5.10;;;;;;;;;;4929738;29;20184;-87
2023/09/14 13:51:32;;;;;;;5.50;5.00;;;;;;;;;;4930059;29;20632;-87
2023/09/14 13:54:36;;;;;;;6.40;5.05;;;;;;;;;;4929942;29;20181;-86
2023/09/14 13:57:40;;;;;;;6.93;5.25;;;;;;;;;;4935170;29;20222;-87
2023/09/14 14:00:45;;;;;;;7.63;4.82;;;;;;;;;;4937923;29;20186;-87
2023/09/14 14:03:49;;;;;;;5.63;4.85;;;;;;;;;;4937645;29;20184;-86
2023/09/14 14:06:53;;;;;;;5.95;4.60;;;;;;;;;;4949415;29;20178;-86
2023/09/14 14:09:57;;;;;;;5.10;4.60;;;;;;;;;;4937104;29;20191;-86
2023/09/14 14:13:02;;;;;;;8.82;5.05;;;;;;;;;;4947984;29;20222;-86
2023/09/14 14:16:07;;;;;;;5.95;4.95;;;;;;;;;;4947347;29;20190;-86
2023/09/14 14:19:12;;;;;;;5.18;4.60;;;;;;;;;;4936711;29;20179;-86
2023/09/14 14:22:16;;;;;;;5.82;5.22;;;;;;;;;;4937246;29;20221;-87
2023/09/14 14:25:21;;;;;;;5.43;4.80;;;;;;;;;;4936194;29;20189;-87
2023/09/14 14:28:27;;;;;;;6.20;4.85;;;;;;;;;;4947755;29;20524;-88
2023/09/14 14:31:31;;;;;;;7.78;5.40;;;;;;;;;;4946659;29;20186;-88
2023/09/14 14:34:35;;;;;;;6.90;4.73;;;;;;;;;;4935676;29;20188;-89
2023/09/14 14:37:39;;;;;;;7.15;4.97;;;;;;;;;;4934665;29;20214;-88
2023/09/14 14:40:43;;;;;;;11.52;5.30;;;;;;;;;;4945325;29;20529;-88
2023/09/14 14:43:47;;;;;;;7.15;5.38;;;;;;;;;;4945745;29;20195;-89
2023/09/14 14:46:54;;;;;;;5.43;4.60;;;;;;;;;;4944837;29;20212;-89
2023/09/14 14:49:57;;;;;;;6.50;4.93;;;;;;;;;;4944331;29;20181;-89
2023/09/14 14:53:01;;;;;;;5.10;4.35;;;;;;;;;;4943891;29;20225;-86
2023/09/14 14:56:06;;;;;;;7.20;4.82;;;;;;;;;;4944013;29;20185;-89
2023/09/14 14:59:10;;;;;;;5.95;4.22;;;;;;;;;;4943230;29;20192;-88
2023/09/14 15:02:14;;;;;;;6.97;5.03;;;;;;;;;;4931563;29;20216;-88
2023/09/14 15:05:18;;;;;;;8.90;4.53;;;;;;;;;;4943203;29;20631;-88
2023/09/14 15:08:22;;;;;;;6.10;4.40;;;;;;;;;;4931419;29;20180;-88
2023/09/14 15:11:28;;;;;;;7.20;4.25;;;;;;;;;;4946094;29;20649;-88
2023/09/14 15:14:32;;;;;;;5.53;4.55;;;;;;;;;;4943828;29;20186;-88
2023/09/14 15:17:38;;;;;;;6.03;4.28;;;;;;;;;;4931858;29;20558;-88
2023/09/14 15:20:43;;;;;;;4.93;4.45;;;;;;;;;;4943702;29;20216;-88
2023/09/14 15:23:47;;;;;;;5.43;4.93;;;;;;;;;;4933240;29;20185;-88
2023/09/14 15:26:51;;;;;;;4.93;4.43;;;;;;;;;;4944791;29;20185;-88
2023/09/14 15:29:57;;;;;;;5.20;4.37;;;;;;;;;;4934487;29;20187;-88
2023/09/14 15:33:02;;;;;;;7.60;4.33;;;;;;;;;;4944136;29;20719;-88
2023/09/14 15:36:07;;;;;;;4.57;4.10;;;;;;;;;;4941687;29;20186;-88
2023/09/14 15:39:12;;;;;;;5.43;4.03;;;;;;;;;;4942302;29;20210;-88
2023/09/14 15:42:16;;;;;;;4.83;4.10;;;;;;;;;;4931475;29;20216;-88
2023/09/14 15:45:20;;;;;;;4.23;3.83;;;;;;;;;;4942229;29;20737;-87
2023/09/14 15:48:26;;;;;;;7.57;4.33;;;;;;;;;;4930210;29;20183;-88
2023/09/14 15:51:31;;;;;;;5.27;4.07;;;;;;;;;;4929533;29;20190;-88
2023/09/14 15:54:35;;;;;;;6.60;4.20;;;;;;;;;;4941271;29;20192;-88
2023/09/14 15:57:40;;;;;;;4.27;3.87;;;;;;;;;;4929790;29;20213;-88
2023/09/14 16:00:45;;;;;;;4.37;3.97;;;;;;;;;;4940636;29;20178;-88
2023/09/14 16:03:49;;;;;;;5.83;4.40;;;;;;;;;;4942216;29;20186;-88
2023/09/14 16:06:53;;;;;;;6.73;4.30;;;;;;;;;;4934784;29;20182;-88
2023/09/14 16:09:57;;;;;;;7.27;4.13;;;;;;;;;;4942100;29;20187;-88
2023/09/14 16:13:09;;;;;;;5.37;4.10;;;;;;;;;;4941556;29;20229;-88
2023/09/14 16:16:13;;;;;;;7.77;4.00;;;;;;;;;;4940879;29;20640;-88
2023/09/14 16:19:17;;;;;;;5.53;4.40;;;;;;;;;;4940307;29;20216;-87
2023/09/14 16:26:36;;;;;;;5.33;4.33;;;;;;;;;;4948235;29;20611;-88
2023/09/14 16:29:40;;;;;;;8.17;4.90;;;;;;;;;;4930288;29;20174;-88
2023/09/14 16:32:49;;;;;;;7.53;4.77;;;;;;;;;;4929370;29;20225;-88
2023/09/14 16:36:04;;;;;;;8.00;4.20;;;;;;;;;;4918846;29;20185;-88
2023/09/14 16:39:19;;;;;;;14.67;4.67;;;;;;;;;;4928390;29;20238;-89
2023/09/14 16:42:26;;;;;;;10.80;4.67;;;;;;;;;;4928822;29;20225;-89
2023/09/14 16:45:31;;;;;;;7.13;4.20;;;;;;;;;;4938989;29;20205;-88
2023/09/14 16:48:39;;;;;;;9.77;4.73;;;;;;;;;;4940175;29;20177;-88
2023/09/14 16:51:44;;;;;;;8.37;4.40;;;;;;;;;;4939393;29;20220;-88
2023/09/14 16:54:51;;;;;;;6.43;4.50;;;;;;;;;;4939091;29;20638;-88
2023/09/14 16:57:55;;;;;;;7.57;4.17;;;;;;;;;;4939335;29;20209;-89
2023/09/14 17:01:00;;;;;;;5.47;4.50;;;;;;;;;;4917270;29;20189;-88
2023/09/14 17:04:05;;;;;;;5.37;4.50;;;;;;;;;;4939581;29;20188;-89
2023/09/14 17:07:11;;;;;;;6.70;4.17;;;;;;;;;;4939338;29;20527;-88
2023/09/14 17:10:17;;;;;;;5.87;4.33;;;;;;;;;;4928062;29;20184;-88
2023/09/14 17:13:23;;;;;;;6.70;5.13;;;;;;;;;;4938465;29;20227;-88
2023/09/14 17:16:27;;;;;;;8.93;4.57;;;;;;;;;;4927746;29;20185;-88
2023/09/14 17:19:31;;;;;;;9.03;5.00;;;;;;;;;;4938788;29;20212;-88
2023/09/14 17:22:35;;;;;;;5.30;4.47;;;;;;;;;;4927088;29;20566;-88
2023/09/14 17:25:39;;;;;;;6.23;4.70;;;;;;;;;;4938787;29;20187;-89
2023/09/14 17:28:43;;;;;;;5.43;4.57;;;;;;;;;;4927691;29;20188;-88
2023/09/14 17:31:48;;;;;;;7.87;5.53;;;;;;;;;;4937156;29;20219;-88
2023/09/14 17:34:52;;;;;;;12.00;5.13;;;;;;;;;;4929488;29;20188;-89
2023/09/14 17:37:59;;;;;;;7.67;6.20;;;;;;;;;;4939052;29;20601;-87
2023/09/14 17:41:04;;;;;;;6.57;5.93;;;;;;;;;;4937862;29;20180;-89
2023/09/14 17:44:08;;;;;;;6.63;5.80;;;;;;;;;;4940606;29;20172;-89
2023/09/14 17:47:12;;;;;;;7.10;5.80;;;;;;;;;;4939944;29;20215;-89
2023/09/14 17:50:16;;;;;;;7.63;5.60;;;;;;;;;;4939580;29;20176;-89
2023/09/14 17:53:22;;;;;;;6.90;6.20;;;;;;;;;;4939668;29;20220;-89
2023/09/14 17:56:26;;;;;;;7.30;5.90;;;;;;;;;;4938610;29;20184;-88
2023/09/14 17:59:30;;;;;;;7.80;7.00;;;;;;;;;;4929665;29;20212;-90
2023/09/14 18:02:34;;;;;;;8.20;6.07;;;;;;;;;;4928662;29;20596;-89
2023/09/14 18:05:51;;;;;;;7.67;6.67;;;;;;;;;;4929556;29;20184;-89
2023/09/14 18:08:56;;;;;;;8.30;6.97;;;;;;;;;;4917098;29;20642;-88
2023/09/14 18:12:00;;;;;;;10.13;7.00;;;;;;;;;;4927403;29;20219;-88
2023/09/14 18:15:05;;;;;;;8.23;7.07;;;;;;;;;;4929291;29;20543;-89
2023/09/14 18:18:09;;;;;;;8.83;7.93;;;;;;;;;;4927776;29;20216;-90
2023/09/14 18:21:14;;;;;;;10.83;7.03;;;;;;;;;;4928717;29;20184;-90